createdAt,value
2018-11-02T00:01:21.409Z,11.03
2018-11-02T00:03:51.505Z,11.03
2018-11-02T00:06:21.668Z,10.63
2018-11-02T00:08:51.535Z,10.47
2018-11-02T00:11:21.854Z,156.47
2018-11-02T00:13:52.845Z,52.40
2018-11-02T00:16:23.219Z,11.67
2018-11-02T00:18:53.198Z,9.77
2018-11-02T00:21:22.961Z,16.97
2018-11-02T00:23:52.749Z,14.77
2018-11-02T00:26:22.570Z,10.23
2018-11-02T00:28:52.587Z,10.20
2018-11-02T00:31:22.985Z,11.77
2018-11-02T00:33:52.910Z,10.23
2018-11-02T00:36:22.833Z,6.90
2018-11-02T00:38:52.636Z,8.57
2018-11-02T00:41:22.572Z,8.67
2018-11-02T00:43:52.803Z,7.67
2018-11-02T00:46:22.914Z,8.13
2018-11-02T00:48:52.803Z,8.03
2018-11-02T00:51:22.716Z,7.75
2018-11-02T00:53:52.461Z,7.90
2018-11-02T00:56:22.569Z,8.70
2018-11-02T00:58:52.618Z,8.07
2018-11-02T01:01:22.489Z,7.53
2018-11-02T01:03:52.707Z,6.62
2018-11-02T01:06:22.586Z,5.57
2018-11-02T01:08:52.977Z,5.27
2018-11-02T01:11:22.952Z,5.03
2018-11-02T01:13:54.040Z,5.23
2018-11-02T01:16:23.959Z,4.97
2018-11-02T01:18:54.245Z,5.07
2018-11-02T01:21:24.090Z,5.27
2018-11-02T01:23:53.866Z,4.33
2018-11-02T01:26:23.741Z,4.72
2018-11-02T01:28:53.683Z,5.50
2018-11-02T01:31:24.048Z,4.60
2018-11-02T01:33:53.802Z,4.80
2018-11-02T01:36:24.437Z,5.90
2018-11-02T01:38:54.938Z,5.40
2018-11-02T01:41:26.448Z,5.94
2018-11-02T01:43:56.984Z,5.50
2018-11-02T01:46:28.657Z,5.02
2018-11-02T01:48:59.142Z,4.75
2018-11-02T01:51:30.154Z,6.08
2018-11-02T01:54:00.972Z,5.20
2018-11-02T01:57:34.892Z,5.02
2018-11-02T02:00:04.662Z,5.23
2018-11-02T02:02:35.061Z,4.80
2018-11-02T02:05:04.904Z,4.97
2018-11-02T02:07:34.753Z,5.77
2018-11-02T02:10:04.724Z,4.73
2018-11-02T02:12:34.549Z,5.27
2018-11-02T02:15:04.986Z,4.83
2018-11-02T02:17:35.340Z,4.10
2018-11-02T02:20:07.113Z,5.37
2018-11-02T02:22:37.287Z,7.27
2018-11-02T02:25:08.129Z,6.73
2018-11-02T02:27:38.322Z,6.57
2018-11-02T02:30:11.641Z,8.50
2018-11-02T02:32:41.489Z,6.93
2018-11-02T02:35:12.014Z,6.13
2018-11-02T02:37:42.195Z,6.53
2018-11-02T02:40:13.317Z,5.72
2018-11-02T02:42:43.891Z,6.03
2018-11-02T02:45:14.022Z,6.87
2018-11-02T02:47:43.846Z,7.53
2018-11-02T02:50:14.721Z,7.07
2018-11-02T02:52:45.210Z,6.43
2018-11-02T02:55:15.698Z,7.07
2018-11-02T02:57:45.655Z,16.37
2018-11-02T03:00:15.949Z,10.73
2018-11-02T03:02:45.793Z,7.37
2018-11-02T03:05:15.767Z,6.50
2018-11-02T03:07:45.765Z,7.60
2018-11-02T03:10:15.553Z,7.10
2018-11-02T03:12:45.529Z,6.87
2018-11-02T03:15:15.596Z,5.27
2018-11-02T03:17:45.442Z,5.40
2018-11-02T03:20:15.642Z,5.07
2018-11-02T03:22:45.558Z,5.50
2018-11-02T03:25:15.590Z,6.27
2018-11-02T03:27:45.653Z,4.90
2018-11-02T03:30:15.466Z,5.63
2018-11-02T03:32:45.649Z,4.90
2018-11-02T03:35:15.616Z,4.93
2018-11-02T03:37:45.518Z,5.40
2018-11-02T03:40:15.723Z,4.90
2018-11-02T03:42:45.541Z,4.60
2018-11-02T03:45:15.741Z,4.80
2018-11-02T03:47:45.519Z,4.97
2018-11-02T03:50:15.569Z,5.67
2018-11-02T03:52:45.489Z,5.47
2018-11-02T03:55:15.493Z,5.73
2018-11-02T03:57:45.682Z,6.33
2018-11-02T04:00:15.772Z,8.90
2018-11-02T04:02:45.878Z,6.63
2018-11-02T04:05:16.131Z,4.80
2018-11-02T04:07:46.374Z,5.03
2018-11-02T04:10:16.530Z,4.47
2018-11-02T04:12:46.472Z,4.70
2018-11-02T04:15:16.479Z,5.53
2018-11-02T04:17:46.685Z,4.80
2018-11-02T04:20:20.592Z,5.27
2018-11-02T04:22:50.572Z,6.40
2018-11-02T04:25:20.516Z,5.63
2018-11-02T04:27:50.496Z,6.93
2018-11-02T04:30:20.481Z,7.20
2018-11-02T04:32:50.549Z,7.80
2018-11-02T04:35:20.524Z,12.43
2018-11-02T04:40:13.250Z,6.90
2018-11-02T04:42:43.170Z,6.40
2018-11-02T04:45:13.300Z,6.28
2018-11-02T04:47:43.152Z,6.37
2018-11-02T04:50:13.405Z,6.60
2018-11-02T04:52:43.876Z,6.07
2018-11-02T04:55:13.831Z,6.33
2018-11-02T04:57:44.687Z,6.47
2018-11-02T05:00:15.117Z,6.47
2018-11-02T05:02:46.149Z,6.55
2018-11-02T05:05:16.959Z,6.97
2018-11-02T05:07:48.318Z,9.98
2018-11-02T05:10:19.024Z,11.22
2018-11-02T05:12:50.983Z,13.13
2018-11-02T05:15:21.263Z,18.57
2018-11-02T05:17:52.113Z,16.52
2018-11-02T05:20:23.259Z,17.70
2018-11-02T05:22:54.242Z,15.30
2018-11-02T05:25:24.948Z,16.85
2018-11-02T05:27:56.586Z,16.06
2018-11-02T05:31:30.002Z,15.20
2018-11-02T05:33:59.833Z,20.83
2018-11-02T05:36:29.691Z,18.50
2018-11-02T05:38:59.558Z,21.37
2018-11-02T05:41:29.525Z,21.30
2018-11-02T05:43:59.607Z,17.30
2018-11-02T05:46:29.574Z,15.57
2018-11-02T05:48:59.478Z,15.23
2018-11-02T05:51:29.646Z,12.83
2018-11-02T05:53:59.485Z,11.67
2018-11-02T05:56:29.929Z,7.17
2018-11-02T05:58:59.775Z,5.50
2018-11-02T06:01:29.738Z,6.30
2018-11-02T06:03:59.884Z,6.00
2018-11-02T06:06:29.608Z,5.80
2018-11-02T06:08:59.538Z,5.03
2018-11-02T06:11:29.554Z,5.07
2018-11-02T06:13:59.467Z,5.03
2018-11-02T06:16:29.625Z,5.87
2018-11-02T06:18:59.408Z,5.17
2018-11-02T06:21:29.526Z,4.92
2018-11-02T06:24:02.837Z,4.97
2018-11-02T06:26:32.754Z,5.90
2018-11-02T06:29:02.577Z,5.60
2018-11-02T06:31:32.559Z,6.60
2018-11-02T06:34:02.589Z,5.90
2018-11-02T06:36:32.709Z,5.43
2018-11-02T06:39:02.616Z,5.50
2018-11-02T06:41:32.881Z,6.30
2018-11-02T06:44:02.694Z,6.53
2018-11-02T06:46:32.650Z,7.27
2018-11-02T06:49:02.539Z,6.17
2018-11-02T06:51:32.521Z,7.20
2018-11-02T06:54:02.681Z,7.13
2018-11-02T06:56:32.572Z,7.10
2018-11-02T06:59:02.564Z,7.23
2018-11-02T07:01:32.504Z,8.73
2018-11-02T07:04:02.550Z,7.33
2018-11-02T07:06:32.530Z,7.07
2018-11-02T07:09:02.645Z,6.63
2018-11-02T07:11:32.529Z,7.77
2018-11-02T07:14:02.559Z,7.67
2018-11-02T07:16:32.449Z,7.53
2018-11-02T07:19:02.760Z,10.23
2018-11-02T07:21:32.541Z,21.47
2018-11-02T07:24:02.576Z,12.33
2018-11-02T07:26:32.629Z,9.77
2018-11-02T07:29:02.476Z,12.00
2018-11-02T07:31:32.546Z,10.03
2018-11-02T07:34:02.403Z,9.60
2018-11-02T07:36:32.401Z,9.00
2018-11-02T07:39:17.936Z,8.38
2018-11-02T07:41:47.783Z,8.80
2018-11-02T07:44:17.929Z,7.23
2018-11-02T07:46:54.610Z,8.57
2018-11-02T07:49:24.693Z,9.23
2018-11-02T07:51:54.589Z,7.87
2018-11-02T07:54:24.577Z,7.17
2018-11-02T07:56:54.490Z,8.17
2018-11-02T07:59:24.562Z,8.00
2018-11-02T08:01:54.528Z,8.73
2018-11-02T08:04:24.557Z,6.73
2018-11-02T08:06:55.070Z,7.17
2018-11-02T08:09:24.891Z,7.67
2018-11-02T08:11:54.935Z,6.37
2018-11-02T08:14:24.826Z,7.63
2018-11-02T08:16:54.520Z,6.73
2018-11-02T08:19:24.441Z,6.03
2018-11-02T08:21:54.564Z,5.90
2018-11-02T08:24:24.524Z,6.03
2018-11-02T08:26:55.377Z,6.27
2018-11-02T08:29:25.421Z,6.00
2018-11-02T08:31:55.985Z,6.30
2018-11-02T08:34:26.185Z,5.35
2018-11-02T08:36:56.341Z,5.37
2018-11-02T08:39:26.222Z,4.92
2018-11-02T08:41:56.193Z,4.65
2018-11-02T08:44:25.991Z,4.70
2018-11-02T08:46:55.601Z,3.63
2018-11-02T08:49:25.497Z,3.83
2018-11-02T08:51:55.732Z,3.50
2018-11-02T08:54:25.545Z,4.00
2018-11-02T08:56:55.880Z,3.70
2018-11-02T08:59:29.525Z,3.13
2018-11-02T09:01:59.775Z,2.70
2018-11-02T09:04:29.531Z,3.63
2018-11-02T09:06:59.672Z,2.87
2018-11-02T09:09:29.464Z,3.50
2018-11-02T09:11:59.979Z,3.95
2018-11-02T09:14:29.796Z,3.27
2018-11-02T09:16:59.664Z,3.10
2018-11-02T09:19:29.572Z,3.37
2018-11-02T09:22:00.017Z,3.58
2018-11-02T09:24:29.807Z,3.17
2018-11-02T09:27:00.336Z,3.00
2018-11-02T09:29:31.052Z,3.37
2018-11-02T09:32:02.055Z,3.22
2018-11-02T09:34:32.916Z,3.45
2018-11-02T09:37:04.420Z,3.18
2018-11-02T09:39:35.026Z,3.22
2018-11-02T09:42:06.357Z,2.98
2018-11-02T09:44:37.153Z,3.17
2018-11-02T09:47:08.443Z,3.30
2018-11-02T09:49:39.155Z,3.50
2018-11-02T09:52:10.162Z,2.85
2018-11-02T09:54:40.965Z,3.30
2018-11-02T09:57:12.444Z,2.44
2018-11-02T09:59:42.983Z,2.72
2018-11-02T10:02:14.911Z,3.00
2018-11-02T10:04:45.160Z,2.55
2018-11-02T10:07:16.093Z,2.33
2018-11-02T10:09:46.914Z,2.77
2018-11-02T10:12:18.314Z,2.94
2018-11-02T10:14:48.925Z,2.80
2018-11-02T10:17:20.552Z,2.34
2018-11-02T10:19:51.014Z,2.77
2018-11-02T10:22:22.048Z,2.08
2018-11-02T10:24:53.209Z,2.20
2018-11-02T10:27:24.251Z,1.70
2018-11-02T10:29:55.007Z,1.60
2018-11-02T10:32:26.216Z,1.67
2018-11-02T10:34:57.235Z,1.67
2018-11-02T10:37:28.090Z,1.20
2018-11-02T10:39:59.165Z,1.57
2018-11-02T10:42:30.229Z,1.17
2018-11-02T10:45:01.321Z,1.40
2018-11-02T10:47:32.444Z,1.60
2018-11-02T10:50:02.992Z,1.80
2018-11-02T10:52:34.014Z,1.92
2018-11-02T10:55:05.456Z,1.88
2018-11-02T10:57:36.128Z,1.67
2018-11-02T11:00:14.036Z,1.90
2018-11-02T11:02:51.628Z,1.77
2018-11-02T11:05:22.140Z,2.33
2018-11-02T11:07:52.265Z,2.20
2018-11-02T11:10:22.115Z,1.77
2018-11-02T11:12:52.136Z,2.70
2018-11-02T11:15:22.058Z,2.00
2018-11-02T11:17:51.846Z,5.73
2018-11-02T11:20:21.830Z,3.53
2018-11-02T11:22:51.704Z,8.60
2018-11-02T11:25:21.605Z,15.17
2018-11-02T11:27:51.534Z,36.53
2018-11-02T11:30:22.078Z,23.27
2018-11-02T11:32:52.954Z,8.53
2018-11-02T11:35:23.283Z,2.72
2018-11-02T11:37:53.109Z,2.25
2018-11-02T11:40:23.611Z,2.00
2018-11-02T11:42:54.166Z,5.90
2018-11-02T11:45:25.799Z,4.28
2018-11-02T11:47:56.377Z,5.50
2018-11-02T11:50:27.102Z,5.83
2018-11-02T11:52:58.319Z,3.80
2018-11-02T11:55:29.058Z,2.00
2018-11-02T11:58:00.021Z,2.52
2018-11-02T12:00:31.017Z,1.77
2018-11-02T12:03:02.258Z,2.08
2018-11-02T12:05:33.186Z,1.95
2018-11-02T12:08:04.025Z,5.60
2018-11-02T12:10:35.116Z,4.20
2018-11-02T12:13:06.210Z,2.60
2018-11-02T12:15:37.503Z,2.48
2018-11-02T12:18:08.159Z,2.10
2018-11-02T12:20:39.130Z,1.82
2018-11-02T12:23:09.942Z,1.72
2018-11-02T12:25:41.399Z,1.84
2018-11-02T12:28:11.247Z,1.87
2018-11-02T12:30:42.053Z,1.57
2018-11-02T12:33:13.015Z,1.60
2018-11-02T12:35:43.981Z,1.85
2018-11-02T12:38:15.358Z,1.84
2018-11-02T12:40:45.922Z,1.70
2018-11-02T12:43:17.497Z,1.96
2018-11-02T12:45:48.152Z,2.17
2018-11-02T12:48:19.069Z,1.70
2018-11-02T12:50:49.873Z,1.62
2018-11-02T12:53:21.248Z,1.34
2018-11-02T12:55:52.043Z,1.50
2018-11-02T12:58:23.581Z,1.72
2018-11-02T13:00:54.276Z,1.85
2018-11-02T13:03:25.192Z,1.75
2018-11-02T13:05:56.014Z,1.80
2018-11-02T13:08:27.519Z,1.66
2018-11-02T13:10:57.976Z,1.60
2018-11-02T13:13:29.604Z,1.80
2018-11-02T13:16:00.178Z,2.10
2018-11-02T13:18:31.358Z,1.32
2018-11-02T13:21:02.062Z,1.77
2018-11-02T13:23:33.109Z,1.67
2018-11-02T13:26:04.147Z,1.80
2018-11-02T13:28:35.221Z,1.47
2018-11-02T13:31:06.080Z,1.52
2018-11-02T13:33:37.018Z,1.27
2018-11-02T13:36:08.376Z,1.54
2018-11-02T13:38:39.067Z,2.35
2018-11-02T13:41:09.987Z,1.98
2018-11-02T13:43:41.054Z,1.37
2018-11-02T13:46:12.080Z,2.15
2018-11-02T13:48:43.103Z,2.27
2018-11-02T13:51:14.047Z,1.77
2018-11-02T13:53:45.463Z,2.38
2018-11-02T13:56:16.069Z,2.72
2018-11-02T13:58:48.493Z,2.47
2018-11-02T14:01:18.542Z,2.17
2018-11-02T14:03:49.326Z,2.00
2018-11-02T14:06:20.097Z,1.90
2018-11-02T14:08:51.101Z,1.87
2018-11-02T14:11:22.440Z,2.22
2018-11-02T14:13:53.205Z,1.77
2018-11-02T14:16:24.096Z,2.33
2018-11-02T14:18:55.471Z,2.30
2018-11-02T14:21:26.075Z,2.15
2018-11-02T14:23:57.063Z,2.10
2018-11-02T14:26:27.965Z,2.50
2018-11-02T14:28:59.422Z,2.36
2018-11-02T14:31:29.956Z,2.60
2018-11-02T14:34:01.584Z,2.36
2018-11-02T14:36:32.058Z,3.00
2018-11-02T14:39:03.458Z,3.72
2018-11-02T14:41:34.057Z,3.30
2018-11-02T14:44:05.162Z,3.85
2018-11-02T14:46:36.428Z,4.20
2018-11-02T14:49:07.609Z,4.28
2018-11-02T14:51:38.110Z,6.55
2018-11-02T14:54:09.188Z,12.20
2018-11-02T14:56:40.063Z,13.50
2018-11-02T14:59:11.479Z,27.42
2018-11-02T15:01:42.019Z,28.35
2018-11-02T15:04:13.397Z,27.32
2018-11-02T15:06:43.997Z,12.03
2018-11-02T15:09:15.466Z,17.56
2018-11-02T15:11:46.077Z,11.10
2018-11-02T15:14:17.412Z,7.14
2018-11-02T15:16:47.933Z,11.20
2018-11-02T15:19:19.701Z,11.70
2018-11-02T15:21:50.228Z,10.63
2018-11-02T15:24:21.076Z,10.32
2018-11-02T15:26:52.347Z,11.78
2018-11-02T15:29:23.079Z,11.45
2018-11-02T15:31:53.982Z,28.62
2018-11-02T15:34:25.088Z,25.17
2018-11-02T15:36:56.288Z,22.58
2018-11-02T15:39:27.399Z,18.82
2018-11-02T15:41:58.148Z,31.05
2018-11-02T15:44:29.200Z,134.70
2018-11-02T15:47:00.062Z,90.40
2018-11-02T15:49:31.528Z,84.24
2018-11-02T15:52:02.047Z,111.12
2018-11-02T15:54:33.548Z,253.10
2018-11-02T15:57:04.359Z,272.98
2018-11-02T15:59:35.255Z,201.70
2018-11-02T16:02:06.288Z,152.87
2018-11-02T16:04:37.197Z,154.78
2018-11-02T16:07:08.125Z,123.45
2018-11-02T16:09:39.074Z,175.82
2018-11-02T16:12:10.356Z,186.16
2018-11-02T16:14:41.277Z,152.38
2018-11-02T16:17:12.012Z,128.97
2018-11-02T16:19:43.490Z,170.32
2018-11-02T16:22:14.037Z,86.70
2018-11-02T16:24:45.285Z,106.32
2018-11-02T16:27:15.996Z,114.28
2018-11-02T16:29:47.329Z,114.92
2018-11-02T16:32:17.959Z,73.67
2018-11-02T16:34:49.508Z,55.46
2018-11-02T16:37:20.479Z,51.80
2018-11-02T16:39:51.205Z,53.52
2018-11-02T16:42:21.979Z,48.63
2018-11-02T16:44:53.574Z,45.54
2018-11-02T16:47:24.373Z,44.85
2018-11-02T16:49:54.996Z,47.13
2018-11-02T16:52:26.032Z,45.98
2018-11-02T16:54:57.468Z,47.32
2018-11-02T16:57:27.934Z,45.63
2018-11-02T16:59:59.350Z,52.30
2018-11-02T17:02:30.498Z,47.27
2018-11-02T17:05:01.482Z,46.02
2018-11-02T17:07:32.339Z,40.40
2018-11-02T17:10:03.025Z,36.15
2018-11-02T17:12:35.246Z,31.88
2018-11-02T17:15:12.534Z,30.10
2018-11-02T17:17:42.572Z,29.47
2018-11-02T17:20:15.543Z,30.53
2018-11-02T17:22:46.182Z,29.27
2018-11-02T17:25:16.075Z,31.13
2018-11-02T17:27:45.887Z,31.17
2018-11-02T17:30:17.091Z,34.37
2018-11-02T17:32:46.951Z,34.67
2018-11-02T17:35:16.843Z,34.80
2018-11-02T17:37:46.836Z,31.55
2018-11-02T17:40:17.267Z,29.85
2018-11-02T17:42:47.104Z,51.68
2018-11-02T17:45:16.989Z,47.35
2018-11-02T17:47:48.586Z,38.02
2018-11-02T17:50:19.154Z,33.40
2018-11-02T17:52:50.133Z,51.30
2018-11-02T17:55:20.997Z,54.48
2018-11-02T17:57:52.569Z,56.66
2018-11-02T18:00:23.090Z,56.40
2018-11-02T18:02:54.480Z,58.44
2018-11-02T18:05:25.460Z,57.05
2018-11-02T18:07:57.021Z,55.14
2018-11-02T18:10:26.937Z,39.35
2018-11-02T18:12:58.445Z,42.88
2018-11-02T18:15:29.081Z,54.73
2018-11-02T18:18:00.054Z,52.08
2018-11-02T18:20:31.342Z,49.34
2018-11-02T18:23:02.123Z,62.58
2018-11-02T18:25:36.836Z,70.38
2018-11-02T18:28:07.097Z,54.60
2018-11-02T18:30:37.152Z,72.93
2018-11-02T18:33:07.103Z,68.63
2018-11-02T18:35:37.394Z,57.20
2018-11-02T18:38:08.060Z,59.63
2018-11-02T18:40:39.426Z,62.42
2018-11-02T18:43:10.103Z,53.38
2018-11-02T18:45:41.226Z,34.88
2018-11-02T18:48:12.265Z,31.40
2018-11-02T18:50:43.960Z,30.30
2018-11-02T18:53:13.818Z,27.30
2018-11-02T18:55:45.416Z,99.86
2018-11-02T18:58:16.046Z,29.23
2018-11-02T19:00:48.060Z,27.64
2018-11-02T19:03:19.029Z,28.20
2018-11-02T19:05:49.354Z,27.45
2018-11-02T19:08:20.257Z,44.83
2018-11-02T19:10:51.876Z,36.38
2018-11-02T19:13:22.652Z,32.46
2018-11-02T19:15:54.076Z,28.77
2018-11-02T19:18:24.860Z,33.10
2018-11-02T19:20:56.716Z,39.14
2018-11-02T19:23:27.827Z,44.47
2018-11-02T19:25:59.152Z,56.03
2018-11-02T19:28:31.179Z,82.70
2018-11-02T19:31:03.462Z,68.30
2018-11-02T19:33:35.831Z,61.40
2018-11-02T19:36:07.248Z,56.57
2018-11-02T19:38:38.554Z,61.48
2018-11-02T19:41:10.670Z,46.13
2018-11-02T19:43:41.521Z,43.57
2018-11-02T19:46:14.351Z,38.28
2018-11-02T19:48:47.332Z,36.23
2018-11-02T19:51:18.684Z,36.67
2018-11-02T19:53:50.531Z,36.80
2018-11-02T19:56:21.484Z,38.07
2018-11-02T19:58:53.651Z,42.33
2018-11-02T20:01:25.093Z,45.27
2018-11-02T20:03:56.062Z,46.60
2018-11-02T20:06:28.959Z,47.10
2018-11-02T20:09:02.617Z,45.28
2018-11-02T20:11:33.634Z,43.67
2018-11-02T20:14:05.274Z,43.27
2018-11-02T20:16:36.933Z,39.67
2018-11-02T20:19:08.364Z,41.00
2018-11-02T20:21:39.916Z,37.00
2018-11-02T20:24:11.308Z,35.93
2018-11-02T20:26:43.247Z,36.70
2018-11-02T20:29:15.319Z,39.10
2018-11-02T20:31:46.652Z,37.17
2018-11-02T20:34:19.974Z,35.37
2018-11-02T20:36:53.121Z,35.37
2018-11-02T20:39:24.960Z,35.03
2018-11-02T20:41:56.434Z,36.27
2018-11-02T20:44:28.180Z,39.93
2018-11-02T20:46:59.460Z,37.90
2018-11-02T20:49:31.201Z,35.10
2018-11-02T20:52:02.340Z,32.50
2018-11-02T20:54:34.630Z,32.40
2018-11-02T20:57:05.600Z,30.83
2018-11-02T20:59:36.996Z,29.10
2018-11-02T21:02:08.279Z,29.80
2018-11-02T21:04:40.454Z,31.83
2018-11-02T21:07:12.491Z,29.30
2018-11-02T21:09:43.390Z,30.70
2018-11-02T21:12:14.340Z,33.17
2018-11-02T21:14:45.314Z,33.50
2018-11-02T21:17:16.200Z,36.97
2018-11-02T21:19:46.700Z,37.40
2018-11-02T21:22:17.288Z,39.53
2018-11-02T21:24:48.000Z,36.77
2018-11-02T21:27:18.434Z,36.60
2018-11-02T21:29:48.929Z,40.43
2018-11-02T21:32:18.864Z,43.20
2018-11-02T21:34:48.822Z,64.40
2018-11-02T21:37:18.878Z,90.17
2018-11-02T21:39:48.954Z,69.00
2018-11-02T21:42:25.973Z,57.97
2018-11-02T21:44:56.161Z,38.40
2018-11-02T21:47:26.758Z,36.97
2018-11-02T21:49:57.057Z,39.17
2018-11-02T21:52:27.107Z,39.70
2018-11-02T21:54:57.344Z,38.57
2018-11-02T21:57:27.725Z,33.97
2018-11-02T21:59:57.802Z,30.17
2018-11-02T22:02:27.728Z,30.60
2018-11-02T22:04:57.728Z,28.67
2018-11-02T22:07:27.748Z,26.50
2018-11-02T22:09:57.708Z,27.33
2018-11-02T22:12:27.539Z,26.17
2018-11-02T22:14:57.509Z,25.70
2018-11-02T22:17:27.476Z,22.97
2018-11-02T22:19:57.688Z,22.17
2018-11-02T22:22:27.857Z,22.03
2018-11-02T22:24:58.225Z,22.00
2018-11-02T22:27:28.590Z,20.40
2018-11-02T22:29:58.819Z,21.07
2018-11-02T22:32:28.616Z,20.30
2018-11-02T22:34:58.862Z,20.07
2018-11-02T22:37:29.287Z,19.80
2018-11-02T22:39:59.411Z,19.67
2018-11-02T22:42:29.377Z,19.77
2018-11-02T22:44:59.580Z,19.50
2018-11-02T22:47:29.666Z,18.33
2018-11-02T22:49:59.841Z,17.30
2018-11-02T22:52:30.058Z,17.50
2018-11-02T22:54:59.802Z,18.17
2018-11-02T22:57:29.988Z,16.90
2018-11-02T22:59:59.887Z,16.47
2018-11-02T23:02:29.810Z,16.63
2018-11-02T23:04:59.975Z,16.80
2018-11-02T23:07:29.788Z,16.20
2018-11-02T23:10:00.441Z,15.25
2018-11-02T23:12:31.257Z,15.80
2018-11-02T23:15:01.098Z,14.98
2018-11-02T23:17:31.184Z,14.35
2018-11-02T23:20:01.236Z,14.43
2018-11-02T23:22:31.388Z,14.70
2018-11-02T23:25:01.552Z,15.00
2018-11-02T23:27:32.312Z,15.35
2018-11-02T23:30:03.294Z,16.45
2018-11-02T23:32:34.440Z,16.45
2018-11-02T23:35:05.785Z,16.65
2018-11-02T23:37:36.688Z,17.82
2018-11-02T23:40:08.531Z,17.07
2018-11-02T23:42:38.634Z,15.90
2018-11-02T23:45:10.852Z,16.73
2018-11-02T23:47:44.957Z,17.37
2018-11-02T23:50:15.034Z,16.87
2018-11-02T23:52:44.891Z,17.30
2018-11-02T23:55:15.421Z,17.30
2018-11-02T23:57:45.752Z,18.93
